Time;durP1;ratioP1;P1;durP2;ratioP2;P2;SDS_P1;SDS_P2;PMS_P1;PMS_P2;Temp;Humidity;BMP_temperature;BMP_pressure;BME280_temperature;BME280_humidity;BME280_pressure;Samples;Min_cycle;Max_cycle;Signal;HPM_P1;HPM_P2
2022/02/03 00:00:03;;;;;;;41.83;23.42;;;9.30;94.90;;;;;;5013603;28;20048;-87
2022/02/03 00:02:46;;;;;;;46.05;27.17;;;9.30;95.00;;;;;;5013657;28;20042;-86
2022/02/03 00:05:19;;;;;;;46.00;27.47;;;9.20;95.00;;;;;;5013470;28;20060;-86
2022/02/03 00:08:14;;;;;;;45.03;25.92;;;9.20;95.00;;;;;;4981888;28;20403;-86
2022/02/03 00:24:27;;;;;;;24.13;16.23;;;9.10;95.20;;;;;;5013560;28;20049;-84
2022/02/03 00:27:14;;;;;;;26.20;15.50;;;9.10;95.20;;;;;;5013298;28;20107;-87
2022/02/03 00:29:59;;;;;;;22.90;14.85;;;9.10;95.30;;;;;;4997554;28;20049;-86
2022/02/03 00:49:14;;;;;;;26.33;17.58;;;9.10;95.50;;;;;;4998732;28;20058;-85
2022/02/03 00:51:34;;;;;;;27.10;17.27;;;9.10;95.50;;;;;;5009661;28;20053;-84
2022/02/03 00:54:10;;;;;;;29.92;19.02;;;9.10;95.60;;;;;;4996729;28;20050;-85
2022/02/03 00:56:41;;;;;;;27.85;17.33;;;9.10;95.60;;;;;;5012218;28;20125;-85
2022/02/03 00:59:16;;;;;;;24.52;15.60;;;9.10;95.60;;;;;;4980743;28;20058;-85
2022/02/03 01:01:48;;;;;;;23.38;16.10;;;9.10;95.60;;;;;;5012516;28;20053;-85
2022/02/03 01:04:16;;;;;;;30.02;19.08;;;9.10;95.60;;;;;;5012429;28;20057;-86
2022/02/03 01:06:55;;;;;;;32.65;21.60;;;9.10;95.90;;;;;;4996412;28;20067;-85
2022/02/03 01:09:29;;;;;;;30.25;19.83;;;9.10;95.70;;;;;;4996609;28;20054;-85
2022/02/03 01:12:12;;;;;;;30.02;18.42;;;9.10;95.70;;;;;;4995694;28;20054;-85
2022/02/03 01:14:46;;;;;;;;;;;9.10;95.70;;;;;;5012223;28;20104;-84
2022/02/03 01:17:28;;;;;;;27.95;17.90;;;9.10;95.70;;;;;;4995830;28;19922;-86
2022/02/03 01:20:35;;;;;;;30.48;18.60;;;9.10;95.80;;;;;;4981680;28;20034;-85
2022/02/03 01:37:14;;;;;;;35.42;21.77;;;9.10;96.10;;;;;;5008461;28;20133;-86
2022/02/03 01:48:17;;;;;;;31.17;20.00;;;9.10;95.90;;;;;;5015495;28;20050;-86
2022/02/03 01:53:33;;;;;;;36.25;22.33;;;9.10;95.90;;;;;;5015973;28;20045;-86
2022/02/03 01:56:12;;;;;;;37.90;24.05;;;9.20;96.00;;;;;;4999385;28;20570;-86
2022/02/03 01:58:45;;;;;;;34.25;22.63;;;9.20;96.00;;;;;;5015447;28;20096;-86
2022/02/03 02:01:19;;;;;;;34.00;22.20;;;9.20;96.00;;;;;;5015501;28;20046;-85
2022/02/03 02:03:57;;;;;;;34.40;21.75;;;9.10;95.90;;;;;;5000076;28;20414;-85
2022/02/03 02:06:58;;;;;;;34.38;22.02;;;9.20;96.00;;;;;;5000226;28;20049;-86
2022/02/03 02:09:54;;;;;;;33.42;20.35;;;9.20;95.90;;;;;;5015853;28;20145;-86
2022/02/03 02:13:13;;;;;;;35.60;22.05;;;9.10;95.90;;;;;;5016298;28;20042;-85
2022/02/03 02:16:04;;;;;;;39.38;24.20;;;9.20;95.90;;;;;;5015558;28;20045;-85
2022/02/03 02:18:55;;;;;;;38.78;25.02;;;9.10;96.00;;;;;;4999651;28;20046;-85
2022/02/03 02:44:02;;;;;;;35.30;22.58;;;9.20;96.00;;;;;;5015912;28;20398;-86
2022/02/03 02:46:48;;;;;;;31.48;18.98;;;9.20;96.00;;;;;;4999302;28;20053;-86
2022/02/03 02:49:49;;;;;;;32.90;19.92;;;9.20;96.00;;;;;;5014808;28;20191;-86
2022/02/03 02:52:29;;;;;;;33.22;19.80;;;9.20;96.00;;;;;;5014582;28;20046;-85
2022/02/03 02:58:16;;;;;;;36.58;20.92;;;9.20;96.00;;;;;;5014184;28;20073;-86
2022/02/03 03:35:31;;;;;;;39.03;23.23;;;9.20;95.80;;;;;;5014156;28;20042;-86
2022/02/03 03:38:03;;;;;;;34.30;19.42;;;9.20;95.80;;;;;;5013942;28;20045;-86
2022/02/03 03:40:32;;;;;;;31.57;18.80;;;9.10;95.80;;;;;;5013729;28;20049;-87
2022/02/03 03:43:08;;;;;;;34.88;18.65;;;9.20;95.80;;;;;;5013678;28;20490;-87
2022/02/03 03:45:39;;;;;;;30.73;16.95;;;9.20;95.70;;;;;;5014043;28;20046;-87
2022/02/03 03:48:07;;;;;;;30.65;17.52;;;9.20;95.70;;;;;;4997566;28;20061;-87
2022/02/03 03:50:39;;;;;;;27.65;15.93;;;9.20;95.70;;;;;;4982663;28;20041;-87
2022/02/03 03:53:17;;;;;;;30.30;16.90;;;9.20;95.60;;;;;;4982575;28;20119;-87
2022/02/03 03:56:00;;;;;;;30.73;17.23;;;9.20;95.60;;;;;;4997344;28;20152;-87
2022/02/03 04:37:20;;;;;;;27.83;15.73;;;9.10;95.20;;;;;;5012920;28;20011;-86
2022/02/03 04:46:21;;;;;;;29.88;15.77;;;9.10;95.10;;;;;;4996651;28;20041;-85
2022/02/03 04:55:37;;;;;;;18.83;11.30;;;9.10;95.00;;;;;;5012480;28;20066;-86
2022/02/03 05:01:58;;;;;;;25.45;13.98;;;9.10;95.10;;;;;;5012436;28;20038;-86
2022/02/03 05:08:10;;;;;;;22.63;13.65;;;9.10;94.90;;;;;;4986968;28;20045;-86
2022/02/03 05:13:48;;;;;;;20.80;13.13;;;9.10;94.90;;;;;;5008852;28;20069;-86
2022/02/03 05:32:36;;;;;;;17.73;10.23;;;9.00;94.50;;;;;;5012540;28;20050;-86
2022/02/03 05:45:26;;;;;;;14.82;8.63;;;9.00;94.60;;;;;;5012862;28;20490;-85
2022/02/03 05:48:03;;;;;;;16.70;10.15;;;9.00;94.60;;;;;;5012192;28;20054;-84
2022/02/03 06:07:42;;;;;;;16.20;9.35;;;8.90;94.50;;;;;;5014865;28;20141;-85
2022/02/03 06:13:04;;;;;;;16.60;8.63;;;8.90;94.50;;;;;;5015019;28;20149;-86
2022/02/03 06:16:05;;;;;;;14.57;8.77;;;8.90;94.40;;;;;;5017690;28;20069;-85
2022/02/03 06:24:14;;;;;;;9.80;6.60;;;8.90;94.40;;;;;;5003980;28;20045;-87
2022/02/03 06:29:40;;;;;;;12.32;7.38;;;8.90;94.40;;;;;;5019723;28;20155;-86
2022/02/03 06:32:10;;;;;;;10.80;6.63;;;8.90;94.30;;;;;;5003421;28;20144;-88
2022/02/03 06:34:37;;;;;;;10.85;5.82;;;8.90;94.30;;;;;;5018820;28;20173;-86
2022/02/03 06:37:05;;;;;;;11.15;6.60;;;8.90;94.30;;;;;;5018668;28;20045;-87
2022/02/03 06:39:32;;;;;;;11.50;6.47;;;8.90;94.30;;;;;;5003130;28;20071;-87
2022/02/03 06:42:02;;;;;;;10.77;5.85;;;8.90;94.30;;;;;;5003358;28;20517;-88
2022/02/03 06:44:44;;;;;;;9.80;6.20;;;8.90;94.30;;;;;;5003601;28;20052;-85
2022/02/03 06:47:35;;;;;;;8.57;5.13;;;8.90;94.20;;;;;;5003853;28;20042;-91
2022/02/03 06:50:15;;;;;;;9.65;5.32;;;8.90;94.10;;;;;;5002361;28;20045;-88
2022/02/03 06:53:12;;;;;;;9.48;4.72;;;8.80;94.10;;;;;;5018768;28;20095;-87
2022/02/03 06:58:08;;;;;;;7.40;3.65;;;8.80;94.10;;;;;;5018600;28;20482;-87
2022/02/03 07:00:59;;;;;;;5.60;3.00;;;8.80;94.10;;;;;;5003477;28;20046;-87
2022/02/03 07:03:36;;;;;;;8.40;3.67;;;8.80;94.10;;;;;;5019037;28;20705;-87
2022/02/03 07:06:03;;;;;;;8.68;3.53;;;8.80;94.00;;;;;;5002507;28;20506;-87
2022/02/03 07:08:32;;;;;;;6.53;3.47;;;8.80;94.00;;;;;;5002162;28;20509;-86
2022/02/03 07:11:03;;;;;;;5.10;2.70;;;8.80;93.90;;;;;;5002367;28;20152;-87
2022/02/03 07:13:33;;;;;;;5.40;2.58;;;8.80;93.90;;;;;;5018269;28;20045;-87
2022/02/03 07:16:01;;;;;;;8.40;2.63;;;8.80;93.90;;;;;;5019023;28;20178;-86
2022/02/03 07:18:29;;;;;;;5.25;2.20;;;8.80;93.90;;;;;;5018062;28;20056;-86
2022/02/03 07:20:56;;;;;;;5.57;2.50;;;8.80;93.90;;;;;;5001799;28;20048;-87
2022/02/03 07:23:26;;;;;;;3.97;1.75;;;8.80;93.80;;;;;;5001403;28;20041;-87
2022/02/03 07:25:55;;;;;;;4.28;2.00;;;8.80;93.80;;;;;;5001330;28;20045;-84
2022/02/03 07:28:22;;;;;;;5.40;2.28;;;8.80;93.80;;;;;;5001662;28;20083;-89
2022/02/03 07:30:50;;;;;;;8.82;2.78;;;8.80;93.80;;;;;;5001534;28;20103;-89
2022/02/03 07:33:19;;;;;;;6.63;3.22;;;8.80;93.60;;;;;;4985642;28;20056;-88
2022/02/03 07:35:49;;;;;;;6.20;2.22;;;8.70;93.60;;;;;;5001207;28;20446;-86
2022/02/03 07:38:20;;;;;;;3.65;1.85;;;8.80;93.70;;;;;;5016989;28;20483;-86
2022/02/03 07:40:50;;;;;;;3.97;1.90;;;8.80;93.70;;;;;;5001205;28;20045;-84
2022/02/03 07:43:17;;;;;;;6.88;2.13;;;8.80;93.70;;;;;;5001403;28;20048;-90
2022/02/03 07:46:36;;;;;;;4.65;2.47;;;8.80;93.60;;;;;;5020758;28;20699;-87
2022/02/03 07:49:06;;;;;;;7.05;2.58;;;8.70;93.60;;;;;;5017347;28;20053;-88
2022/02/03 07:51:34;;;;;;;5.60;2.75;;;8.70;93.50;;;;;;5001669;28;20405;-90
2022/02/03 07:54:10;;;;;;;5.88;3.42;;;8.70;93.50;;;;;;5001907;28;20045;-94
2022/02/03 07:56:41;;;;;;;7.25;2.85;;;8.70;93.40;;;;;;4987866;28;20425;-90
2022/02/03 07:59:21;;;;;;;6.53;3.60;;;8.70;93.40;;;;;;5003076;28;20044;-95
2022/02/03 08:01:56;;;;;;;6.03;3.20;;;8.70;93.40;;;;;;5002200;28;20052;-93
2022/02/03 08:04:31;;;;;;;7.60;3.40;;;8.70;93.40;;;;;;4986246;28;20052;-92
2022/02/03 08:07:00;;;;;;;6.45;4.10;;;8.70;93.40;;;;;;5002153;28;20117;-90
2022/02/03 08:10:05;;;;;;;8.38;4.40;;;8.70;93.30;;;;;;5001974;28;20492;-95
2022/02/03 08:12:46;;;;;;;9.13;4.97;;;8.80;93.20;;;;;;5018205;28;20145;-87
2022/02/03 08:15:23;;;;;;;10.80;5.00;;;8.70;93.10;;;;;;5001928;28;20095;-90
2022/02/03 08:17:59;;;;;;;9.07;5.03;;;8.70;93.00;;;;;;5001725;28;20049;-90
2022/02/03 08:20:32;;;;;;;11.60;6.22;;;8.70;93.00;;;;;;5000863;28;20042;-85
2022/02/03 08:26:10;;;;;;;9.05;5.47;;;8.70;92.70;;;;;;4990493;28;20053;-87
2022/02/03 08:31:26;;;;;;;9.93;5.43;;;8.80;92.80;;;;;;5016892;28;20099;-92
2022/02/03 08:33:55;;;;;;;11.35;5.85;;;8.80;92.70;;;;;;5017614;28;20046;-90
2022/02/03 08:36:24;;;;;;;8.98;4.97;;;8.80;92.70;;;;;;5000142;28;20045;-91
2022/02/03 08:38:59;;;;;;;10.55;5.60;;;8.80;92.70;;;;;;4986794;28;20049;-88
2022/02/03 08:41:29;;;;;;;11.18;5.43;;;8.80;92.70;;;;;;5016819;28;20547;-91
2022/02/03 08:44:03;;;;;;;10.75;5.25;;;8.80;92.60;;;;;;5002109;28;20144;-90
2022/02/03 08:46:31;;;;;;;9.52;4.32;;;8.80;92.60;;;;;;5001818;28;20049;-92
2022/02/03 08:49:01;;;;;;;9.23;5.15;;;8.80;92.70;;;;;;5001360;28;20147;-92
2022/02/03 08:51:31;;;;;;;6.97;4.05;;;8.80;92.60;;;;;;5016806;28;20045;-92
2022/02/03 08:54:06;;;;;;;10.80;5.22;;;8.80;92.60;;;;;;5000673;28;20103;-87
2022/02/03 08:56:48;;;;;;;7.97;4.30;;;8.80;92.50;;;;;;4986079;28;20056;-93
2022/02/03 09:35:51;;;;;;;12.57;5.78;;;8.80;92.10;;;;;;5016732;28;20051;-91
2022/02/03 09:40:57;;;;;;;10.52;5.85;;;8.80;91.90;;;;;;4998872;28;20145;-84
2022/02/03 09:57:31;;;;;;;10.25;5.35;;;8.90;91.90;;;;;;5023264;28;20049;-92
2022/02/03 10:00:30;;;;;;;8.73;5.38;;;8.90;91.80;;;;;;5020288;28;20100;-93
2022/02/03 10:03:03;;;;;;;10.13;6.07;;;8.90;91.70;;;;;;5020751;28;20049;-94
2022/02/03 10:05:52;;;;;;;11.63;5.55;;;8.90;91.70;;;;;;5020809;28;20066;-92
2022/02/03 10:08:20;;;;;;;7.97;5.10;;;8.90;91.60;;;;;;5019896;28;20072;-89
2022/02/03 10:10:50;;;;;;;10.18;5.22;;;8.80;91.60;;;;;;5019814;28;20049;-88
2022/02/03 10:13:26;;;;;;;9.88;5.63;;;8.90;91.60;;;;;;4971874;28;20037;-89
2022/02/03 10:16:07;;;;;;;9.98;5.03;;;8.90;91.60;;;;;;5002851;28;20072;-87
2022/02/03 10:18:37;;;;;;;8.40;4.78;;;8.80;91.70;;;;;;5002341;28;20061;-87
2022/02/03 10:21:09;;;;;;;6.80;4.78;;;8.80;91.60;;;;;;5003045;28;20045;-86
2022/02/03 10:24:17;;;;;;;12.88;5.43;;;8.70;91.70;;;;;;5002696;28;20042;-86
2022/02/03 10:26:53;;;;;;;10.32;6.32;;;8.70;91.70;;;;;;4925223;29;20102;-87
2022/02/03 10:29:30;;;;;;;10.18;5.97;;;8.60;91.80;;;;;;4924799;29;20154;-87
2022/02/03 10:31:57;;;;;;;11.10;6.07;;;8.60;91.90;;;;;;4980251;28;20160;-85
2022/02/03 10:34:32;;;;;;;9.60;6.00;;;8.60;92.00;;;;;;5019165;28;20053;-87
2022/02/03 10:37:26;;;;;;;8.13;4.88;;;8.60;92.00;;;;;;5002592;28;20077;-87
2022/02/03 10:45:44;;;;;;;9.23;5.15;;;8.70;92.10;;;;;;5018810;28;20148;-87
2022/02/03 10:51:29;;;;;;;7.68;4.35;;;8.70;91.90;;;;;;5015895;28;20081;-86
2022/02/03 10:54:14;;;;;;;10.15;5.53;;;8.70;91.90;;;;;;5015114;28;20045;-89
2022/02/03 11:05:24;;;;;;;8.70;5.18;;;8.80;91.80;;;;;;5014847;28;20049;-86
2022/02/03 11:08:10;;;;;;;8.65;4.55;;;8.80;91.70;;;;;;5015051;28;20056;-87
2022/02/03 11:10:54;;;;;;;7.28;4.07;;;8.80;91.80;;;;;;4982787;28;20077;-87
2022/02/03 11:13:44;;;;;;;7.82;4.18;;;9.00;91.80;;;;;;5014518;28;20042;-87
2022/02/03 11:16:18;;;;;;;7.13;3.70;;;9.00;91.70;;;;;;4985379;28;20160;-88
2022/02/03 11:19:02;;;;;;;7.65;4.22;;;9.10;91.70;;;;;;5015029;28;20483;-86
2022/02/03 11:21:40;;;;;;;6.35;3.88;;;9.10;91.60;;;;;;4998220;28;20509;-86
2022/02/03 11:24:29;;;;;;;6.53;3.88;;;9.10;91.50;;;;;;5014400;28;20046;-86
2022/02/03 11:27:19;;;;;;;8.32;3.88;;;9.10;91.50;;;;;;5014789;28;20081;-87
2022/02/03 12:04:34;;;;;;;10.20;4.22;;;9.00;91.30;;;;;;5011626;28;20071;-87
2022/02/03 12:07:36;;;;;;;13.77;6.65;;;9.00;91.30;;;;;;5034358;28;20067;-84
2022/02/03 12:19:46;;;;;;;8.98;4.70;;;9.10;91.00;;;;;;5016410;28;20051;-86
2022/02/03 12:25:49;;;;;;;6.82;4.55;;;9.20;91.10;;;;;;5008740;28;20054;-88
2022/02/03 12:29:24;;;;;;;8.82;4.85;;;9.30;91.00;;;;;;5015844;28;20076;-84
2022/02/03 12:40:30;;;;;;;10.93;5.28;;;9.20;90.50;;;;;;5033135;28;20045;-85
2022/02/03 12:46:02;;;;;;;11.25;5.65;;;9.10;90.50;;;;;;5020529;28;20073;-86
2022/02/03 12:48:32;;;;;;;9.10;5.18;;;9.10;90.40;;;;;;5016640;28;20054;-84
2022/02/03 12:50:59;;;;;;;7.18;5.03;;;9.10;90.50;;;;;;5016326;28;20049;-86
2022/02/03 12:53:51;;;;;;;8.35;4.70;;;9.10;90.60;;;;;;5016166;28;20060;-89
2022/02/03 12:56:23;;;;;;;7.65;4.47;;;9.20;90.50;;;;;;5009108;28;20152;-85
2022/02/03 12:59:00;;;;;;;10.30;5.72;;;9.10;90.50;;;;;;5032607;28;20114;-82
2022/02/03 13:01:32;;;;;;;11.30;5.43;;;9.10;90.40;;;;;;5032215;28;20050;-83
2022/02/03 13:04:13;;;;;;;10.40;5.75;;;9.10;90.20;;;;;;5032231;28;20077;-86
2022/02/03 13:06:46;;;;;;;8.20;4.32;;;9.00;90.30;;;;;;5000569;28;20049;-85
2022/02/03 13:09:23;;;;;;;7.38;4.90;;;9.10;90.50;;;;;;5031637;28;20099;-85
2022/02/03 13:11:55;;;;;;;7.47;4.47;;;9.00;90.50;;;;;;5028455;28;20045;-85
2022/02/03 13:14:30;;;;;;;8.02;3.83;;;9.10;90.50;;;;;;5010625;28;20175;-81
2022/02/03 13:17:16;;;;;;;8.25;3.95;;;9.10;90.50;;;;;;4977092;28;20056;-83
2022/02/03 13:20:06;;;;;;;;;;;9.20;90.60;;;;;;4996367;28;20552;-83
2022/02/03 13:22:59;;;;;;;6.35;3.80;;;9.20;90.60;;;;;;4980283;28;19921;-84
2022/02/03 13:28:03;;;;;;;7.38;4.22;;;9.10;90.60;;;;;;4980018;28;20050;-83
2022/02/03 13:31:07;;;;;;;7.20;4.25;;;9.10;90.60;;;;;;4995904;28;20072;-81
2022/02/03 13:33:41;;;;;;;10.98;4.57;;;9.00;90.60;;;;;;4983071;28;20065;-83
2022/02/03 13:36:18;;;;;;;11.07;5.47;;;8.90;90.70;;;;;;4980401;28;20046;-83
2022/02/03 13:42:35;;;;;;;13.30;5.78;;;8.90;90.70;;;;;;4991666;28;20041;-87
2022/02/03 13:45:53;;;;;;;9.10;4.72;;;8.80;90.70;;;;;;4998874;28;20038;-86
2022/02/03 13:48:21;;;;;;;8.15;4.95;;;8.80;90.80;;;;;;5009917;28;20057;-83
2022/02/03 13:50:53;;;;;;;6.53;4.10;;;8.80;90.80;;;;;;4995199;28;20046;-86
2022/02/03 13:53:27;;;;;;;8.77;5.47;;;8.80;90.90;;;;;;4980543;28;20080;-87
2022/02/03 14:21:49;;;;;;;9.57;4.93;;;8.00;92.00;;;;;;4980241;28;20402;-85
2022/02/03 14:27:23;;;;;;;9.15;4.72;;;8.00;92.20;;;;;;4995832;28;20049;-88
2022/02/03 14:29:55;;;;;;;9.40;5.78;;;8.00;92.20;;;;;;4979932;28;20050;-89
2022/02/03 14:32:39;;;;;;;8.43;5.43;;;8.00;92.30;;;;;;4981268;28;20092;-88
2022/02/03 14:35:08;;;;;;;8.32;5.18;;;8.00;92.30;;;;;;4996624;28;20046;-87
2022/02/03 14:37:46;;;;;;;8.82;5.25;;;8.00;92.40;;;;;;4999827;28;20088;-89
2022/02/03 14:40:30;;;;;;;8.07;5.00;;;8.00;92.50;;;;;;4998909;28;20569;-81
2022/02/03 14:43:06;;;;;;;7.07;4.35;;;8.00;92.60;;;;;;5001959;28;20073;-87
2022/02/03 14:45:33;;;;;;;8.27;4.55;;;8.00;92.60;;;;;;5000425;28;20494;-84
2022/02/03 14:48:02;;;;;;;8.27;5.65;;;8.00;92.60;;;;;;4979638;28;20058;-84
2022/02/03 14:50:29;;;;;;;6.88;4.03;;;8.10;92.70;;;;;;4979245;28;20085;-81
2022/02/03 14:52:59;;;;;;;8.48;4.07;;;8.10;92.60;;;;;;4963031;28;20463;-81
2022/02/03 15:03:07;;;;;;;9.70;6.20;;;8.10;92.70;;;;;;4936972;29;20540;-87
2022/02/03 15:13:09;;;;;;;12.95;8.32;;;7.80;93.20;;;;;;4921880;29;20048;-88
2022/02/03 15:16:15;;;;;;;10.05;7.65;;;7.80;93.30;;;;;;4898361;29;20418;-89
2022/02/03 15:19:23;;;;;;;11.80;7.88;;;7.70;93.60;;;;;;4883525;29;20064;-88
2022/02/03 15:22:26;;;;;;;10.55;6.45;;;7.70;93.60;;;;;;4870797;29;20052;-87
2022/02/03 15:31:52;;;;;;;8.43;5.15;;;7.70;93.60;;;;;;4932582;29;20469;-88
2022/02/03 15:34:34;;;;;;;8.82;5.18;;;7.70;93.60;;;;;;4915438;29;20044;-83
2022/02/03 15:40:29;;;;;;;9.60;5.25;;;7.80;93.60;;;;;;4934383;29;20137;-82
2022/02/03 15:43:04;;;;;;;9.75;5.60;;;7.80;93.70;;;;;;4920317;29;20074;-81
2022/02/03 15:45:38;;;;;;;9.00;5.82;;;7.80;93.70;;;;;;4935172;29;20111;-84
2022/02/03 15:48:29;;;;;;;6.22;4.13;;;7.80;93.70;;;;;;4957411;28;20073;-88
2022/02/03 16:02:48;;;;;;;10.38;6.78;;;7.80;93.90;;;;;;4960422;28;20055;-88
2022/02/03 16:14:26;;;;;;;9.05;5.97;;;7.70;94.00;;;;;;5013313;28;20049;-84
2022/02/03 16:19:01;;;;;;;10.55;6.53;;;7.80;94.00;;;;;;5013255;28;20042;-87
2022/02/03 16:21:35;;;;;;;10.13;6.32;;;7.80;94.10;;;;;;5013042;28;20049;-84
2022/02/03 16:24:38;;;;;;;12.95;7.70;;;7.80;94.10;;;;;;4984506;28;20038;-82
2022/02/03 16:43:25;;;;;;;12.75;7.93;;;7.80;94.10;;;;;;4999442;28;20104;-80
2022/02/03 16:53:47;;;;;;;11.15;6.68;;;7.80;94.10;;;;;;4996396;28;20128;-79
2022/02/03 16:56:17;;;;;;;11.52;7.63;;;7.80;94.10;;;;;;4995703;28;20053;-79
2022/02/03 16:58:46;;;;;;;15.38;8.98;;;7.80;94.20;;;;;;4995262;28;20085;-78
2022/02/03 17:01:15;;;;;;;14.90;9.63;;;7.80;94.20;;;;;;4996298;28;20116;-80
2022/02/03 17:03:44;;;;;;;16.67;9.00;;;7.80;94.20;;;;;;4995957;28;20038;-80
2022/02/03 17:06:17;;;;;;;12.82;9.23;;;7.80;94.20;;;;;;4997129;28;20042;-82
2022/02/03 17:08:51;;;;;;;11.40;7.88;;;7.80;94.30;;;;;;4965627;28;20049;-83
2022/02/03 17:11:21;;;;;;;12.45;8.48;;;7.80;94.30;;;;;;4995487;28;20490;-81
2022/02/03 17:13:49;;;;;;;13.07;8.27;;;7.80;94.30;;;;;;4995906;28;20072;-81
2022/02/03 17:16:23;;;;;;;15.60;9.60;;;7.80;94.30;;;;;;4979062;28;20581;-81
2022/02/03 17:18:52;;;;;;;18.05;9.65;;;7.90;94.30;;;;;;4973489;28;20042;-80
2022/02/03 17:21:21;;;;;;;14.65;8.65;;;7.90;94.30;;;;;;4976594;28;20042;-80
2022/02/03 17:24:27;;;;;;;14.35;8.45;;;7.90;94.30;;;;;;4992815;28;20546;-82
2022/02/03 17:27:05;;;;;;;15.73;10.07;;;7.90;94.30;;;;;;4992183;28;20057;-80
2022/02/03 17:44:51;;;;;;;15.35;10.25;;;7.90;94.30;;;;;;4992026;28;20047;-78
2022/02/03 18:36:28;;;;;;;21.10;13.68;;;7.80;94.40;;;;;;5012956;28;20525;-83
2022/02/03 18:57:41;;;;;;;22.77;14.18;;;8.00;94.30;;;;;;5014317;28;20049;-84
2022/02/03 19:03:18;;;;;;;27.08;16.83;;;8.00;94.30;;;;;;4985107;28;20068;-83
2022/02/03 20:04:44;;;;;;;23.08;15.18;;;8.10;94.20;;;;;;5012972;28;20108;-82
2022/02/03 20:10:18;;;;;;;26.13;14.70;;;8.00;94.20;;;;;;5014610;28;20034;-82
2022/02/03 20:12:49;;;;;;;25.55;15.27;;;8.10;94.20;;;;;;4967551;28;20050;-83
2022/02/03 20:15:20;;;;;;;25.67;15.88;;;8.00;94.20;;;;;;5014947;28;20042;-82
2022/02/03 20:17:48;;;;;;;25.33;14.90;;;8.10;94.20;;;;;;4981430;28;20046;-82
2022/02/03 20:20:21;;;;;;;28.60;16.15;;;8.10;94.20;;;;;;4981151;28;20116;-82
2022/02/03 20:22:52;;;;;;;23.08;14.50;;;8.10;94.20;;;;;;4997711;28;20042;-80
2022/02/03 20:25:20;;;;;;;20.75;13.57;;;8.10;94.20;;;;;;4964562;28;20450;-77
2022/02/03 20:27:59;;;;;;;22.95;13.23;;;8.10;94.20;;;;;;4983308;28;20056;-79
2022/02/03 20:30:37;;;;;;;21.73;13.68;;;8.10;94.20;;;;;;4998811;28;20081;-80
2022/02/03 20:33:09;;;;;;;21.90;13.32;;;8.10;94.20;;;;;;4997168;28;20066;-80
2022/02/03 20:35:37;;;;;;;23.27;13.77;;;8.10;94.20;;;;;;4980701;28;20525;-78
2022/02/03 20:38:04;;;;;;;21.92;12.82;;;8.10;94.20;;;;;;4965267;28;20461;-82
2022/02/03 20:40:31;;;;;;;28.92;15.45;;;8.10;94.20;;;;;;4980930;28;20034;-78
2022/02/03 20:43:05;;;;;;;21.52;13.45;;;8.10;94.20;;;;;;4980824;28;20038;-82
2022/02/03 20:45:36;;;;;;;19.13;10.93;;;8.10;94.20;;;;;;4980790;28;20379;-84
2022/02/03 20:48:05;;;;;;;;;;;8.10;94.30;;;;;;4996595;28;20525;-81
2022/02/03 20:50:40;;;;;;;16.50;9.35;;;8.10;94.30;;;;;;4996743;28;20377;-81
2022/02/03 20:53:07;;;;;;;16.98;10.25;;;8.10;94.30;;;;;;4997062;28;20050;-81
2022/02/03 20:55:34;;;;;;;20.60;11.75;;;8.10;94.30;;;;;;4963999;28;20046;-78
2022/02/03 20:58:02;;;;;;;21.83;12.32;;;8.10;94.20;;;;;;5012231;28;20053;-77
2022/02/03 21:00:42;;;;;;;20.50;11.85;;;8.10;94.20;;;;;;4964171;28;20160;-81
2022/02/03 21:03:24;;;;;;;21.02;12.07;;;8.10;94.20;;;;;;4981350;28;20076;-84
2022/02/03 21:05:53;;;;;;;22.42;13.15;;;8.10;94.20;;;;;;4980752;28;20045;-86
2022/02/03 21:08:29;;;;;;;20.92;12.77;;;8.10;94.20;;;;;;4980615;28;20065;-86
2022/02/03 21:11:00;;;;;;;24.80;14.18;;;8.10;94.20;;;;;;4981096;28;20045;-83
2022/02/03 21:13:28;;;;;;;25.08;15.70;;;8.20;94.20;;;;;;5010533;28;20481;-83
2022/02/03 21:16:06;;;;;;;24.20;14.50;;;8.10;94.20;;;;;;5012291;28;20064;-88
2022/02/03 21:18:40;;;;;;;22.70;12.48;;;8.10;94.20;;;;;;5015340;28;20052;-80
2022/02/03 21:21:08;;;;;;;24.55;15.00;;;8.10;94.20;;;;;;5014820;28;20405;-84
2022/02/03 21:23:36;;;;;;;21.23;12.48;;;8.10;94.20;;;;;;4998937;28;20046;-85
2022/02/03 21:26:07;;;;;;;22.13;13.77;;;8.10;94.20;;;;;;5007361;28;20119;-84
2022/02/03 21:28:36;;;;;;;25.17;14.68;;;8.20;94.20;;;;;;4999681;28;20057;-85
2022/02/03 21:31:06;;;;;;;27.83;15.45;;;8.20;94.20;;;;;;5015593;28;20513;-84
2022/02/03 21:33:44;;;;;;;25.00;14.30;;;8.20;94.20;;;;;;5015295;28;20208;-83
2022/02/03 21:36:14;;;;;;;23.33;13.52;;;8.20;94.20;;;;;;5015730;28;20037;-86
2022/02/03 21:38:43;;;;;;;23.98;14.75;;;8.20;94.20;;;;;;5015688;28;20050;-83
2022/02/03 21:41:13;;;;;;;28.38;16.25;;;8.20;94.20;;;;;;5016027;28;20041;-86
2022/02/03 21:43:41;;;;;;;24.35;14.52;;;8.20;94.20;;;;;;5015633;28;20155;-83
2022/02/03 21:46:10;;;;;;;24.92;15.20;;;8.20;94.20;;;;;;5002791;28;20474;-81
2022/02/03 21:48:40;;;;;;;24.75;14.32;;;8.20;94.20;;;;;;5015443;28;20141;-81
2022/02/03 21:51:11;;;;;;;26.90;15.38;;;8.20;94.50;;;;;;4984668;28;20137;-83
2022/02/03 21:53:48;;;;;;;23.10;12.85;;;8.20;94.20;;;;;;4986407;28;20053;-85
2022/02/03 21:56:17;;;;;;;22.83;13.27;;;8.20;94.20;;;;;;5016133;28;20038;-85
2022/02/03 21:58:44;;;;;;;27.67;17.17;;;8.20;94.50;;;;;;4999021;28;20096;-83
2022/02/03 22:01:11;;;;;;;29.85;17.98;;;8.20;94.20;;;;;;5016127;28;20512;-84
2022/02/03 22:03:48;;;;;;;28.52;17.08;;;8.20;94.20;;;;;;5000091;28;20042;-84
2022/02/03 22:06:16;;;;;;;32.03;16.98;;;8.20;94.20;;;;;;5015825;28;20129;-81
2022/02/03 22:08:47;;;;;;;24.20;14.05;;;8.20;94.20;;;;;;4984648;28;20073;-85
2022/02/03 22:11:14;;;;;;;28.52;16.35;;;8.20;94.20;;;;;;4999327;28;20421;-83
2022/02/03 22:13:41;;;;;;;25.55;15.70;;;8.20;94.20;;;;;;4982670;28;20056;-82
2022/02/03 22:16:16;;;;;;;26.60;13.85;;;8.20;94.20;;;;;;5015106;28;20053;-80
2022/02/03 22:18:44;;;;;;;26.73;15.18;;;8.20;94.20;;;;;;4983685;28;20049;-81
2022/02/03 22:21:22;;;;;;;23.88;15.13;;;8.20;94.20;;;;;;4983157;28;20050;-81
2022/02/03 22:38:32;;;;;;;25.75;14.95;;;8.20;94.20;;;;;;5002460;28;20486;-85
2022/02/03 22:48:25;;;;;;;27.92;16.30;;;8.20;94.20;;;;;;4998361;28;20133;-84
2022/02/03 22:50:57;;;;;;;24.45;15.68;;;8.20;94.20;;;;;;5015035;28;20057;-83
2022/02/03 22:53:34;;;;;;;24.05;14.15;;;8.20;94.20;;;;;;5014591;28;20053;-82
2022/02/03 22:56:29;;;;;;;24.35;14.45;;;8.20;94.20;;;;;;4984441;28;20064;-83
2022/02/03 23:01:35;;;;;;;25.70;14.50;;;8.20;94.20;;;;;;4998924;28;20085;-82
2022/02/03 23:04:03;;;;;;;26.33;14.82;;;8.20;94.20;;;;;;4998157;28;20125;-82
2022/02/03 23:06:30;;;;;;;24.58;14.57;;;8.30;94.20;;;;;;4998175;28;20406;-82
2022/02/03 23:09:52;;;;;;;24.67;14.45;;;8.20;94.20;;;;;;5014027;28;20077;-82
2022/02/03 23:12:06;;;;;;;;;;;8.20;94.20;;;;;;5009432;28;20046;-83
2022/02/03 23:22:29;;;;;;;29.13;16.58;;;8.10;94.20;;;;;;5015799;28;20042;-83
2022/02/03 23:25:01;;;;;;;29.13;18.30;;;8.20;94.50;;;;;;5014532;28;20109;-83
2022/02/03 23:30:03;;;;;;;25.65;15.02;;;8.20;94.20;;;;;;4998176;28;20114;-83
2022/02/03 23:32:37;;;;;;;24.70;14.23;;;8.20;94.20;;;;;;5013719;28;20049;-82
2022/02/03 23:35:24;;;;;;;27.50;15.15;;;8.20;94.20;;;;;;4998038;28;20058;-82
2022/02/03 23:38:06;;;;;;;26.25;14.38;;;8.20;94.20;;;;;;4997779;28;20042;-82
2022/02/03 23:51:30;;;;;;;30.27;16.48;;;8.20;94.10;;;;;;5014222;28;20081;-82
